Time;durP1;ratioP1;P1;durP2;ratioP2;P2;SDS_P1;SDS_P2;PMS_P1;PMS_P2;Temp;Humidity;BMP_temperature;BMP_pressure;BME280_temperature;BME280_humidity;BME280_pressure;Samples;Min_cycle;Max_cycle;Signal;HPM_P1;HPM_P2
2022/03/20 00:00:50;;;;;;;28.02;18.38;;;;;;;;;;5097003;28;20556;-68
2022/03/20 00:03:17;;;;;;;27.58;18.48;;;;;;;;;;5097065;28;20269;-68
2022/03/20 00:05:47;;;;;;;31.42;19.70;;;;;;;;;;5096806;28;20280;-69
2022/03/20 00:08:15;;;;;;;28.80;19.52;;;;;;;;;;5096608;28;20190;-68
2022/03/20 00:10:44;;;;;;;32.70;19.80;;;;;;;;;;5096586;28;20676;-68
2022/03/20 00:13:12;;;;;;;28.40;19.90;;;;;;;;;;5096466;28;20299;-68
2022/03/20 00:15:41;;;;;;;28.23;20.50;;;;;;;;;;5096685;28;20194;-68
2022/03/20 00:18:08;;;;;;;29.35;21.67;;;;;;;;;;5096739;28;20195;-68
2022/03/20 00:20:36;;;;;;;25.42;19.48;;;;;;;;;;5096081;28;20204;-68
2022/03/20 00:23:04;;;;;;;27.05;19.77;;;;;;;;;;5096569;28;20196;-68
2022/03/20 00:25:32;;;;;;;29.10;21.58;;;;;;;;;;5096510;28;20234;-68
2022/03/20 00:28:00;;;;;;;24.02;19.58;;;;;;;;;;5096492;28;20218;-68
2022/03/20 00:30:27;;;;;;;25.27;19.13;;;;;;;;;;5096319;28;20289;-68
2022/03/20 00:32:55;;;;;;;22.48;19.02;;;;;;;;;;5096409;28;20226;-69
2022/03/20 00:35:22;;;;;;;32.28;20.52;;;;;;;;;;5096001;28;20675;-68
2022/03/20 00:37:49;;;;;;;28.52;20.25;;;;;;;;;;5096743;28;20565;-69
2022/03/20 00:40:16;;;;;;;27.60;20.10;;;;;;;;;;5096313;28;20538;-69
2022/03/20 00:42:44;;;;;;;30.15;20.88;;;;;;;;;;5096263;28;20561;-68
2022/03/20 00:45:12;;;;;;;31.35;21.77;;;;;;;;;;5096151;28;20296;-68
2022/03/20 00:47:39;;;;;;;24.75;19.27;;;;;;;;;;5095830;28;20199;-68
2022/03/20 00:50:08;;;;;;;28.65;20.73;;;;;;;;;;5095713;28;20243;-68
2022/03/20 00:52:35;;;;;;;28.85;20.88;;;;;;;;;;5094997;28;20202;-68
2022/03/20 00:55:02;;;;;;;26.20;18.73;;;;;;;;;;5095841;28;20644;-68
2022/03/20 00:57:29;;;;;;;28.38;20.42;;;;;;;;;;5095967;28;20192;-68
2022/03/20 00:59:57;;;;;;;32.40;21.40;;;;;;;;;;5095522;28;20205;-68
2022/03/20 01:02:25;;;;;;;24.65;20.58;;;;;;;;;;5095580;28;20207;-68
2022/03/20 01:04:52;;;;;;;27.80;20.77;;;;;;;;;;5095426;28;20207;-68
2022/03/20 01:07:19;;;;;;;28.45;21.23;;;;;;;;;;5095389;28;20236;-68
2022/03/20 01:09:47;;;;;;;35.83;21.90;;;;;;;;;;5095229;28;20215;-68
2022/03/20 01:12:14;;;;;;;30.25;20.20;;;;;;;;;;5095557;28;20549;-68
2022/03/20 01:14:41;;;;;;;26.15;18.98;;;;;;;;;;5095318;28;20233;-67
2022/03/20 01:17:08;;;;;;;33.63;20.77;;;;;;;;;;5095435;28;20296;-68
2022/03/20 01:19:37;;;;;;;30.73;19.95;;;;;;;;;;5095276;28;20258;-68
2022/03/20 01:22:04;;;;;;;30.00;19.08;;;;;;;;;;5095300;28;20197;-68
2022/03/20 01:24:32;;;;;;;32.25;20.60;;;;;;;;;;5095596;28;20281;-68
2022/03/20 01:26:59;;;;;;;31.42;19.38;;;;;;;;;;5094939;28;20249;-68
2022/03/20 01:29:27;;;;;;;27.60;19.77;;;;;;;;;;5095356;28;20237;-68
2022/03/20 01:31:54;;;;;;;24.83;16.48;;;;;;;;;;5095094;28;20194;-68
2022/03/20 01:34:21;;;;;;;26.58;18.20;;;;;;;;;;5095130;28;20271;-68
2022/03/20 01:36:50;;;;;;;23.33;17.55;;;;;;;;;;5095161;28;20202;-68
2022/03/20 01:39:17;;;;;;;23.85;17.90;;;;;;;;;;5095086;28;20194;-68
2022/03/20 01:41:46;;;;;;;24.67;17.52;;;;;;;;;;5094924;28;20199;-68
2022/03/20 01:44:13;;;;;;;22.90;17.17;;;;;;;;;;5095202;28;20193;-68
2022/03/20 01:46:40;;;;;;;34.15;19.10;;;;;;;;;;5094417;28;20284;-68
2022/03/20 01:49:07;;;;;;;27.77;20.42;;;;;;;;;;5094628;28;20583;-68
2022/03/20 01:54:21;;;;;;;23.92;19.45;;;;;;;;;;5094824;28;20723;-68
2022/03/20 01:56:49;;;;;;;30.90;18.70;;;;;;;;;;5094180;28;20719;-68
2022/03/20 01:59:17;;;;;;;20.77;15.63;;;;;;;;;;5094629;28;20198;-68
2022/03/20 02:01:44;;;;;;;23.30;18.30;;;;;;;;;;5094380;28;20219;-68
2022/03/20 02:04:14;;;;;;;25.27;18.35;;;;;;;;;;5094009;28;20193;-68
2022/03/20 02:06:42;;;;;;;21.67;17.73;;;;;;;;;;5094872;28;20251;-68
2022/03/20 02:09:09;;;;;;;24.02;17.30;;;;;;;;;;5094249;28;20541;-68
2022/03/20 02:11:39;;;;;;;23.23;16.75;;;;;;;;;;5094297;28;20190;-68
2022/03/20 02:14:06;;;;;;;22.55;16.92;;;;;;;;;;5094044;28;20284;-68
2022/03/20 02:16:34;;;;;;;25.10;16.52;;;;;;;;;;5094670;28;20547;-68
2022/03/20 02:19:04;;;;;;;23.23;17.50;;;;;;;;;;5094287;28;20614;-68
2022/03/20 02:21:39;;;;;;;25.15;18.30;;;;;;;;;;5094776;28;20209;-68
2022/03/20 02:24:06;;;;;;;23.10;17.88;;;;;;;;;;5094802;28;20201;-68
2022/03/20 02:26:34;;;;;;;27.05;16.73;;;;;;;;;;5094083;28;20205;-68
2022/03/20 02:29:03;;;;;;;21.75;16.25;;;;;;;;;;5094103;28;20254;-68
2022/03/20 02:31:31;;;;;;;21.25;17.02;;;;;;;;;;5094358;28;20606;-68
2022/03/20 02:33:58;;;;;;;21.42;15.52;;;;;;;;;;5094191;28;20204;-68
2022/03/20 02:36:25;;;;;;;21.88;15.25;;;;;;;;;;5093884;28;20234;-68
2022/03/20 02:38:54;;;;;;;29.23;18.60;;;;;;;;;;5093694;28;20200;-68
2022/03/20 02:41:21;;;;;;;21.27;15.70;;;;;;;;;;5093424;28;20289;-68
2022/03/20 02:43:51;;;;;;;22.23;15.48;;;;;;;;;;5093882;28;20233;-68
2022/03/20 02:46:18;;;;;;;21.98;17.10;;;;;;;;;;5093410;28;20243;-68
2022/03/20 02:48:47;;;;;;;25.98;17.00;;;;;;;;;;5093478;28;20287;-68
2022/03/20 02:51:15;;;;;;;25.25;16.70;;;;;;;;;;5093657;28;20325;-68
2022/03/20 02:53:42;;;;;;;32.20;17.20;;;;;;;;;;5093523;28;20615;-68
2022/03/20 02:56:11;;;;;;;26.92;17.58;;;;;;;;;;5093629;28;20285;-68
2022/03/20 02:58:39;;;;;;;25.17;15.98;;;;;;;;;;5093222;28;20202;-68
2022/03/20 03:01:06;;;;;;;20.05;16.27;;;;;;;;;;5093216;28;20655;-68
2022/03/20 03:03:33;;;;;;;25.92;16.90;;;;;;;;;;5093171;28;20198;-68
2022/03/20 03:06:06;;;;;;;24.20;16.02;;;;;;;;;;5093524;28;20198;-68
2022/03/20 03:11:20;;;;;;;26.98;16.83;;;;;;;;;;5093251;28;20209;-68
2022/03/20 03:13:47;;;;;;;22.45;15.20;;;;;;;;;;5093427;28;20216;-68
2022/03/20 03:16:15;;;;;;;22.05;15.40;;;;;;;;;;5092670;28;20280;-68
2022/03/20 03:18:43;;;;;;;21.35;16.00;;;;;;;;;;5093158;28;20189;-68
2022/03/20 03:21:11;;;;;;;18.83;14.90;;;;;;;;;;5093968;28;20638;-68
2022/03/20 03:23:38;;;;;;;18.70;14.80;;;;;;;;;;5093047;28;20194;-68
2022/03/20 03:26:06;;;;;;;20.10;14.93;;;;;;;;;;5093365;28;20224;-68
2022/03/20 03:28:35;;;;;;;22.42;14.48;;;;;;;;;;5093379;28;20300;-68
2022/03/20 03:31:03;;;;;;;23.40;15.77;;;;;;;;;;5093081;28;20595;-67
2022/03/20 03:33:30;;;;;;;23.00;15.20;;;;;;;;;;5093101;28;20199;-68
2022/03/20 03:35:57;;;;;;;19.60;15.30;;;;;;;;;;5092964;28;20716;-67
2022/03/20 03:38:25;;;;;;;23.30;15.30;;;;;;;;;;5092838;28;20284;-68
2022/03/20 03:40:52;;;;;;;25.75;16.75;;;;;;;;;;5093161;28;20297;-68
2022/03/20 03:43:20;;;;;;;19.10;15.20;;;;;;;;;;5093016;28;20190;-68
2022/03/20 03:45:49;;;;;;;27.88;15.35;;;;;;;;;;5093178;28;20202;-68
2022/03/20 03:48:17;;;;;;;19.83;16.38;;;;;;;;;;5093193;28;20217;-68
2022/03/20 03:50:45;;;;;;;22.20;15.57;;;;;;;;;;5092710;28;20617;-68
2022/03/20 03:53:13;;;;;;;21.42;14.77;;;;;;;;;;5092674;28;20194;-68
2022/03/20 03:55:41;;;;;;;21.08;14.98;;;;;;;;;;5092830;28;20690;-68
2022/03/20 03:58:08;;;;;;;23.70;15.30;;;;;;;;;;5093217;28;20190;-68
2022/03/20 04:00:35;;;;;;;23.50;15.50;;;;;;;;;;5093373;28;20194;-68
2022/03/20 04:03:04;;;;;;;20.55;14.52;;;;;;;;;;5092604;28;20202;-68
2022/03/20 04:05:31;;;;;;;22.15;15.57;;;;;;;;;;5093583;28;20201;-68
2022/03/20 04:07:58;;;;;;;25.00;14.93;;;;;;;;;;5092601;28;20285;-68
2022/03/20 04:10:26;;;;;;;22.67;16.67;;;;;;;;;;5092878;28;20225;-68
2022/03/20 04:12:54;;;;;;;19.40;14.50;;;;;;;;;;5092661;28;20655;-68
2022/03/20 04:15:24;;;;;;;34.78;18.30;;;;;;;;;;5093113;28;20226;-68
2022/03/20 04:17:51;;;;;;;23.65;15.82;;;;;;;;;;5092516;28;20722;-68
2022/03/20 04:20:20;;;;;;;24.77;16.33;;;;;;;;;;5092939;28;20198;-68
2022/03/20 04:25:29;;;;;;;23.08;15.35;;;;;;;;;;5092449;28;20186;-68
2022/03/20 04:27:56;;;;;;;21.42;15.13;;;;;;;;;;5094135;28;20197;-68
2022/03/20 04:30:25;;;;;;;22.35;14.93;;;;;;;;;;5096016;28;20755;-68
2022/03/20 04:32:52;;;;;;;22.83;15.20;;;;;;;;;;5096036;28;20268;-68
2022/03/20 04:35:21;;;;;;;21.55;15.90;;;;;;;;;;5096074;28;20193;-68
2022/03/20 04:37:49;;;;;;;19.90;16.70;;;;;;;;;;5096318;28;20194;-68
2022/03/20 04:40:17;;;;;;;19.13;14.65;;;;;;;;;;5096225;28;20286;-68
2022/03/20 04:42:44;;;;;;;22.40;16.17;;;;;;;;;;5095845;28;20667;-68
2022/03/20 04:45:12;;;;;;;20.95;15.52;;;;;;;;;;5095752;28;20198;-68
2022/03/20 04:58:40;;;;;;;20.25;14.57;;;;;;;;;;5095636;28;20589;-68
2022/03/20 05:01:08;;;;;;;22.42;15.27;;;;;;;;;;5095466;28;20279;-68
2022/03/20 05:03:35;;;;;;;24.95;16.30;;;;;;;;;;5095903;28;20387;-68
2022/03/20 05:06:05;;;;;;;20.42;15.90;;;;;;;;;;5095394;28;20201;-68
2022/03/20 05:08:33;;;;;;;24.77;16.65;;;;;;;;;;5095591;28;20255;-68
2022/03/20 05:13:44;;;;;;;24.00;15.30;;;;;;;;;;5095405;28;20606;-68
2022/03/20 05:16:12;;;;;;;20.30;15.10;;;;;;;;;;5095524;28;20283;-68
2022/03/20 05:18:39;;;;;;;20.33;14.57;;;;;;;;;;5095454;28;20367;-68
2022/03/20 05:21:10;;;;;;;27.15;15.75;;;;;;;;;;5095847;28;20194;-68
2022/03/20 05:23:38;;;;;;;25.42;16.60;;;;;;;;;;5095331;28;20243;-68
2022/03/20 05:26:05;;;;;;;22.33;15.60;;;;;;;;;;5095135;28;20205;-68
2022/03/20 05:28:32;;;;;;;20.52;15.77;;;;;;;;;;5094895;28;20656;-68
2022/03/20 05:31:00;;;;;;;23.77;16.50;;;;;;;;;;5095061;28;20225;-69
2022/03/20 05:33:29;;;;;;;18.98;16.00;;;;;;;;;;5094843;28;20275;-68
2022/03/20 05:35:56;;;;;;;24.38;15.45;;;;;;;;;;5095131;28;20194;-68
2022/03/20 05:38:25;;;;;;;25.55;16.13;;;;;;;;;;5094572;28;20558;-68
2022/03/20 05:41:43;;;;;;;19.48;15.45;;;;;;;;;;5095020;28;20193;-69
2022/03/20 05:43:40;;;;;;;23.17;15.88;;;;;;;;;;5094428;28;20193;-68
2022/03/20 05:46:08;;;;;;;21.48;16.55;;;;;;;;;;5094959;28;20199;-68
2022/03/20 05:48:37;;;;;;;20.38;15.73;;;;;;;;;;5094945;28;20193;-69
2022/03/20 05:51:04;;;;;;;20.60;15.40;;;;;;;;;;5094718;28;20225;-68
2022/03/20 05:53:33;;;;;;;22.10;15.63;;;;;;;;;;5094877;28;20673;-68
2022/03/20 05:58:44;;;;;;;16.63;14.45;;;;;;;;;;5094504;28;20692;-69
2022/03/20 06:01:12;;;;;;;26.65;16.88;;;;;;;;;;5094845;28;20201;-68
2022/03/20 06:03:39;;;;;;;31.55;17.05;;;;;;;;;;5094499;28;20201;-68
2022/03/20 06:06:07;;;;;;;20.42;16.25;;;;;;;;;;5093257;28;20194;-68
2022/03/20 06:08:36;;;;;;;21.33;16.20;;;;;;;;;;5093175;28;20277;-68
2022/03/20 06:11:03;;;;;;;24.08;14.85;;;;;;;;;;5093371;28;20573;-68
2022/03/20 06:13:31;;;;;;;23.33;15.85;;;;;;;;;;5094007;28;20189;-68
2022/03/20 06:15:58;;;;;;;21.70;16.88;;;;;;;;;;5093517;28;20220;-68
2022/03/20 06:18:27;;;;;;;26.00;16.42;;;;;;;;;;5094376;28;20528;-68
2022/03/20 06:20:57;;;;;;;23.20;15.98;;;;;;;;;;5094240;28;20197;-68
2022/03/20 06:23:24;;;;;;;20.48;15.80;;;;;;;;;;5094220;28;20190;-70
2022/03/20 06:25:53;;;;;;;20.83;15.57;;;;;;;;;;5094374;28;20599;-68
2022/03/20 06:28:20;;;;;;;21.23;15.20;;;;;;;;;;5094075;28;20539;-68
2022/03/20 06:30:47;;;;;;;25.17;16.38;;;;;;;;;;5093946;28;20193;-68
2022/03/20 06:33:15;;;;;;;20.80;17.05;;;;;;;;;;5093912;28;20198;-68
2022/03/20 06:35:42;;;;;;;22.88;17.48;;;;;;;;;;5093122;28;20237;-68
2022/03/20 06:38:09;;;;;;;26.15;15.55;;;;;;;;;;5093924;28;20203;-68
2022/03/20 06:40:37;;;;;;;24.05;16.45;;;;;;;;;;5093479;28;20635;-68
2022/03/20 06:43:06;;;;;;;23.83;17.17;;;;;;;;;;5093897;28;20221;-68
2022/03/20 06:45:34;;;;;;;27.83;17.40;;;;;;;;;;5093691;28;20233;-68
2022/03/20 06:48:01;;;;;;;21.58;16.00;;;;;;;;;;5093874;28;20196;-68
2022/03/20 06:50:28;;;;;;;25.27;15.75;;;;;;;;;;5092498;28;20227;-70
2022/03/20 06:53:01;;;;;;;26.00;16.85;;;;;;;;;;5093633;28;20252;-70
2022/03/20 06:55:30;;;;;;;28.92;17.52;;;;;;;;;;5093619;28;20178;-70
2022/03/20 06:57:57;;;;;;;26.38;17.27;;;;;;;;;;5093563;28;20199;-70
2022/03/20 07:00:28;;;;;;;25.98;17.00;;;;;;;;;;5093222;28;20190;-70
2022/03/20 07:02:55;;;;;;;21.42;15.23;;;;;;;;;;5093516;28;20286;-70
2022/03/20 07:05:22;;;;;;;24.08;17.23;;;;;;;;;;5093690;28;20289;-70
2022/03/20 07:07:50;;;;;;;24.42;17.00;;;;;;;;;;5092994;28;20249;-70
2022/03/20 07:10:21;;;;;;;26.35;17.15;;;;;;;;;;5093127;28;20198;-69
2022/03/20 07:12:50;;;;;;;17.88;15.70;;;;;;;;;;5093597;28;20644;-70
2022/03/20 07:15:17;;;;;;;26.48;17.90;;;;;;;;;;5093640;28;20192;-70
2022/03/20 07:17:48;;;;;;;23.33;16.95;;;;;;;;;;5092920;28;20194;-70
2022/03/20 07:20:16;;;;;;;22.30;16.33;;;;;;;;;;5093628;28;20303;-70
2022/03/20 07:22:44;;;;;;;26.00;17.50;;;;;;;;;;5093353;28;20248;-70
2022/03/20 07:30:41;;;;;;;26.60;18.77;;;;;;;;;;5093282;28;20177;-70
2022/03/20 07:33:10;;;;;;;27.27;17.15;;;;;;;;;;5092877;28;20228;-70
2022/03/20 07:35:37;;;;;;;25.55;17.75;;;;;;;;;;5092910;28;20195;-70
2022/03/20 07:38:04;;;;;;;26.60;19.02;;;;;;;;;;5093305;28;20194;-70
2022/03/20 07:40:31;;;;;;;26.15;17.85;;;;;;;;;;5093059;28;20242;-70
2022/03/20 07:42:59;;;;;;;26.52;17.20;;;;;;;;;;5093402;28;20199;-70
2022/03/20 07:45:26;;;;;;;28.17;18.33;;;;;;;;;;5093384;28;20190;-70
2022/03/20 07:47:53;;;;;;;27.15;16.45;;;;;;;;;;5093335;28;20586;-70
2022/03/20 07:50:22;;;;;;;23.77;17.60;;;;;;;;;;5092852;28;20632;-70
2022/03/20 07:52:50;;;;;;;27.17;19.20;;;;;;;;;;5092946;28;20217;-70
2022/03/20 07:55:18;;;;;;;23.13;17.02;;;;;;;;;;5093189;28;20203;-70
2022/03/20 07:57:45;;;;;;;26.35;19.85;;;;;;;;;;5092223;28;20651;-70
2022/03/20 08:00:13;;;;;;;27.98;19.15;;;;;;;;;;5093066;28;20318;-70
2022/03/20 08:02:41;;;;;;;23.45;17.52;;;;;;;;;;5095858;28;20202;-70
2022/03/20 08:05:09;;;;;;;31.10;20.00;;;;;;;;;;5097011;28;20203;-70
2022/03/20 08:07:38;;;;;;;28.65;17.83;;;;;;;;;;5096753;28;20191;-69
2022/03/20 08:10:08;;;;;;;27.90;18.40;;;;;;;;;;5096843;28;20285;-67
2022/03/20 08:12:35;;;;;;;27.05;18.92;;;;;;;;;;5096255;28;20215;-70
2022/03/20 08:15:03;;;;;;;27.08;18.00;;;;;;;;;;5096377;28;20252;-71
2022/03/20 08:17:30;;;;;;;22.77;18.40;;;;;;;;;;5096133;28;20199;-70
2022/03/20 08:19:58;;;;;;;24.52;17.38;;;;;;;;;;5097495;28;20675;-70
2022/03/20 08:22:25;;;;;;;29.27;18.20;;;;;;;;;;5096117;28;20295;-70
2022/03/20 08:24:54;;;;;;;29.13;19.50;;;;;;;;;;5096210;28;20674;-70
2022/03/20 08:27:23;;;;;;;23.65;17.77;;;;;;;;;;5096297;28;20727;-70
2022/03/20 08:29:51;;;;;;;27.13;19.02;;;;;;;;;;5096530;28;20210;-70
2022/03/20 08:32:22;;;;;;;23.65;17.90;;;;;;;;;;5096245;28;20237;-69
2022/03/20 08:34:49;;;;;;;31.10;18.80;;;;;;;;;;5096100;28;20184;-71
2022/03/20 08:37:17;;;;;;;28.58;18.88;;;;;;;;;;5096273;28;20195;-70
2022/03/20 08:39:44;;;;;;;23.25;17.70;;;;;;;;;;5096380;28;20194;-72
2022/03/20 08:42:12;;;;;;;26.02;18.52;;;;;;;;;;5096107;28;20226;-71
2022/03/20 08:44:39;;;;;;;28.30;18.83;;;;;;;;;;5095786;28;20206;-71
2022/03/20 08:47:07;;;;;;;24.02;17.90;;;;;;;;;;5095784;28;20197;-70
2022/03/20 08:49:34;;;;;;;27.30;19.13;;;;;;;;;;5095796;28;20227;-71
2022/03/20 08:52:02;;;;;;;25.08;19.25;;;;;;;;;;5095443;28;20314;-71
2022/03/20 08:54:29;;;;;;;24.75;17.95;;;;;;;;;;5096024;28;20240;-71
2022/03/20 08:56:57;;;;;;;29.92;20.15;;;;;;;;;;5096374;28;20280;-71
2022/03/20 08:59:29;;;;;;;28.40;18.65;;;;;;;;;;5095921;28;20199;-71
2022/03/20 09:01:57;;;;;;;35.80;19.75;;;;;;;;;;5095859;28;20274;-70
2022/03/20 09:04:24;;;;;;;27.73;18.52;;;;;;;;;;5095690;28;20196;-70
2022/03/20 09:06:52;;;;;;;27.00;19.70;;;;;;;;;;5095335;28;20237;-70
2022/03/20 09:09:19;;;;;;;26.42;17.50;;;;;;;;;;5095370;28;20196;-70
2022/03/20 09:11:47;;;;;;;27.10;18.85;;;;;;;;;;5096210;28;20219;-77
2022/03/20 09:14:14;;;;;;;30.65;19.75;;;;;;;;;;5094552;28;20197;-71
2022/03/20 09:19:28;;;;;;;29.15;18.75;;;;;;;;;;5095528;28;20216;-70
2022/03/20 09:21:56;;;;;;;29.50;19.13;;;;;;;;;;5094332;28;20212;-70
2022/03/20 09:24:23;;;;;;;29.45;19.30;;;;;;;;;;5095339;28;20197;-70
2022/03/20 09:26:50;;;;;;;29.02;21.20;;;;;;;;;;5095557;28;20289;-70
2022/03/20 09:29:17;;;;;;;27.92;18.92;;;;;;;;;;5094897;28;20654;-70
2022/03/20 09:31:47;;;;;;;29.25;19.55;;;;;;;;;;5095164;28;20223;-70
2022/03/20 09:34:15;;;;;;;27.17;19.50;;;;;;;;;;5094799;28;20286;-70
2022/03/20 09:36:43;;;;;;;29.75;21.55;;;;;;;;;;5094872;28;20682;-70
2022/03/20 09:39:11;;;;;;;29.20;18.60;;;;;;;;;;5094989;28;20209;-71
2022/03/20 09:41:40;;;;;;;26.38;20.27;;;;;;;;;;5094491;28;20199;-70
2022/03/20 09:44:08;;;;;;;29.35;19.00;;;;;;;;;;5094971;28;20205;-70
2022/03/20 09:46:35;;;;;;;26.30;20.17;;;;;;;;;;5095073;28;20199;-71
2022/03/20 09:49:05;;;;;;;26.02;18.48;;;;;;;;;;5094696;28;20196;-70
2022/03/20 09:51:32;;;;;;;33.95;21.90;;;;;;;;;;5094740;28;20192;-71
2022/03/20 09:54:01;;;;;;;29.83;23.05;;;;;;;;;;5094696;28;20223;-70
2022/03/20 09:56:28;;;;;;;31.17;21.83;;;;;;;;;;5094968;28;20193;-70
2022/03/20 09:58:55;;;;;;;30.30;20.92;;;;;;;;;;5094353;28;20210;-70
2022/03/20 10:01:22;;;;;;;29.00;23.02;;;;;;;;;;5094088;28;20290;-70
2022/03/20 10:04:07;;;;;;;31.13;22.50;;;;;;;;;;5094115;28;20299;-70
2022/03/20 10:06:37;;;;;;;31.33;21.73;;;;;;;;;;5095179;28;20190;-70
2022/03/20 10:09:10;;;;;;;30.90;21.20;;;;;;;;;;5094582;28;20181;-70
2022/03/20 10:11:39;;;;;;;27.52;23.05;;;;;;;;;;5094426;28;20199;-70
2022/03/20 10:14:08;;;;;;;28.27;21.25;;;;;;;;;;5094646;28;20216;-70
2022/03/20 10:16:35;;;;;;;27.63;21.73;;;;;;;;;;5094018;28;20230;-70
2022/03/20 10:19:02;;;;;;;28.35;22.02;;;;;;;;;;5093977;28;20694;-70
2022/03/20 10:21:43;;;;;;;29.63;20.83;;;;;;;;;;5093482;28;20206;-70
2022/03/20 10:24:17;;;;;;;27.60;21.52;;;;;;;;;;5094147;28;20211;-71
2022/03/20 10:26:44;;;;;;;32.38;22.17;;;;;;;;;;5094842;28;20218;-71
2022/03/20 10:29:18;;;;;;;32.63;21.95;;;;;;;;;;5093737;28;20199;-71
2022/03/20 10:31:52;;;;;;;26.42;21.27;;;;;;;;;;5094276;28;20196;-70
2022/03/20 10:34:20;;;;;;;31.38;22.48;;;;;;;;;;5094180;28;20199;-70
2022/03/20 10:36:48;;;;;;;37.22;22.45;;;;;;;;;;5094161;28;20216;-70
2022/03/20 10:39:19;;;;;;;25.75;20.20;;;;;;;;;;5094097;28;20252;-70
2022/03/20 10:41:46;;;;;;;35.78;21.48;;;;;;;;;;5093822;28;20231;-70
2022/03/20 10:44:14;;;;;;;31.42;21.85;;;;;;;;;;5093910;28;20557;-70
2022/03/20 10:46:42;;;;;;;27.65;21.55;;;;;;;;;;5093655;28;20197;-71
2022/03/20 10:49:11;;;;;;;28.52;22.17;;;;;;;;;;5093799;28;20599;-70
2022/03/20 10:51:39;;;;;;;27.52;19.83;;;;;;;;;;5093954;28;20178;-71
2022/03/20 10:54:09;;;;;;;27.25;21.85;;;;;;;;;;5094074;28;20310;-71
2022/03/20 10:56:38;;;;;;;27.95;20.08;;;;;;;;;;5093767;28;20281;-72
2022/03/20 10:59:14;;;;;;;31.85;23.60;;;;;;;;;;5093280;28;20225;-71
2022/03/20 11:01:43;;;;;;;29.90;22.67;;;;;;;;;;5093455;28;20193;-71
2022/03/20 11:04:12;;;;;;;34.08;22.55;;;;;;;;;;5093564;28;20211;-71
2022/03/20 11:06:43;;;;;;;32.65;23.98;;;;;;;;;;5093213;28;20197;-70
2022/03/20 11:09:10;;;;;;;27.85;20.80;;;;;;;;;;5093205;28;20197;-70
2022/03/20 11:11:41;;;;;;;32.80;22.67;;;;;;;;;;5093482;28;20286;-72
2022/03/20 11:14:10;;;;;;;31.23;23.50;;;;;;;;;;5093586;28;20476;-71
2022/03/20 11:16:38;;;;;;;28.03;22.57;;;;;;;;;;5093429;28;20194;-71
2022/03/20 11:19:06;;;;;;;35.90;24.30;;;;;;;;;;5092838;28;20432;-70
2022/03/20 11:21:35;;;;;;;29.92;22.60;;;;;;;;;;5093949;28;20444;-71
2022/03/20 11:24:03;;;;;;;32.73;22.43;;;;;;;;;;5093250;28;20293;-70
2022/03/20 11:26:31;;;;;;;30.23;24.07;;;;;;;;;;5094089;28;20457;-70
2022/03/20 11:29:01;;;;;;;29.67;23.20;;;;;;;;;;5093105;28;20454;-70
2022/03/20 11:31:29;;;;;;;29.95;24.48;;;;;;;;;;5093302;28;20527;-71
2022/03/20 11:33:57;;;;;;;30.83;23.70;;;;;;;;;;5093052;28;20269;-70
2022/03/20 11:36:24;;;;;;;31.80;23.23;;;;;;;;;;5094250;28;20440;-70
2022/03/20 11:39:10;;;;;;;33.60;23.90;;;;;;;;;;5097492;28;20439;-72
2022/03/20 11:41:37;;;;;;;32.80;24.83;;;;;;;;;;5097378;28;20431;-71
2022/03/20 11:44:16;;;;;;;47.43;32.53;;;;;;;;;;5096986;28;20948;-69
2022/03/20 11:46:45;;;;;;;32.23;23.67;;;;;;;;;;5097443;28;20438;-69
2022/03/20 11:49:22;;;;;;;28.17;23.40;;;;;;;;;;5097265;28;20439;-69
2022/03/20 11:51:53;;;;;;;36.08;25.08;;;;;;;;;;5096961;28;20989;-70
2022/03/20 11:54:20;;;;;;;30.83;22.07;;;;;;;;;;5095893;28;20322;-69
2022/03/20 11:56:48;;;;;;;28.60;21.00;;;;;;;;;;5096862;28;20440;-69
2022/03/20 11:59:30;;;;;;;34.00;24.33;;;;;;;;;;5096333;28;20526;-69
2022/03/20 12:02:02;;;;;;;31.00;23.13;;;;;;;;;;5096444;28;20489;-69
2022/03/20 12:04:36;;;;;;;33.30;24.33;;;;;;;;;;5096911;28;20435;-70
2022/03/20 12:07:10;;;;;;;32.73;24.00;;;;;;;;;;5097035;28;20462;-69
2022/03/20 12:09:48;;;;;;;29.63;23.50;;;;;;;;;;5096488;28;20493;-70
2022/03/20 12:12:25;;;;;;;31.33;24.20;;;;;;;;;;5097256;28;20820;-69
2022/03/20 12:14:53;;;;;;;31.17;23.87;;;;;;;;;;5096847;28;20910;-70
2022/03/20 12:17:22;;;;;;;31.37;21.00;;;;;;;;;;5096787;28;20448;-69
2022/03/20 12:19:52;;;;;;;30.00;23.27;;;;;;;;;;5095871;28;20479;-70
2022/03/20 12:22:30;;;;;;;30.73;23.83;;;;;;;;;;5096033;28;20431;-69
2022/03/20 12:24:58;;;;;;;33.05;25.45;;;;;;;;;;5096459;28;20470;-70
2022/03/20 12:27:49;;;;;;;29.47;22.27;;;;;;;;;;5096175;28;20205;-69
2022/03/20 12:30:36;;;;;;;29.80;23.50;;;;;;;;;;5081070;28;20455;-70
2022/03/20 12:33:05;;;;;;;31.27;24.93;;;;;;;;;;5095891;28;20479;-69
2022/03/20 12:35:45;;;;;;;29.20;22.33;;;;;;;;;;5096011;28;21020;-69
2022/03/20 12:38:27;;;;;;;34.23;25.83;;;;;;;;;;5096562;28;20481;-69
2022/03/20 12:40:55;;;;;;;29.67;23.83;;;;;;;;;;5093427;28;20951;-69
2022/03/20 12:43:22;;;;;;;33.13;25.50;;;;;;;;;;5095869;28;20974;-69
2022/03/20 12:45:51;;;;;;;33.80;25.33;;;;;;;;;;5096142;28;20450;-70
2022/03/20 12:48:21;;;;;;;32.17;23.83;;;;;;;;;;5094665;28;20439;-70
2022/03/20 12:50:49;;;;;;;33.00;25.40;;;;;;;;;;5095572;28;20486;-70
2022/03/20 12:53:17;;;;;;;30.17;24.90;;;;;;;;;;5095731;28;20586;-69
2022/03/20 12:55:48;;;;;;;30.80;22.90;;;;;;;;;;5095600;28;20523;-77
2022/03/20 12:58:16;;;;;;;30.13;23.90;;;;;;;;;;5096098;28;20446;-68
2022/03/20 13:00:44;;;;;;;33.03;24.10;;;;;;;;;;5095084;28;20446;-68
2022/03/20 13:03:12;;;;;;;31.83;24.67;;;;;;;;;;5095854;28;20447;-68
2022/03/20 13:05:47;;;;;;;29.33;23.87;;;;;;;;;;5095809;28;20534;-73
2022/03/20 13:08:20;;;;;;;30.20;23.67;;;;;;;;;;5096029;28;20441;-73
2022/03/20 13:10:53;;;;;;;32.20;24.07;;;;;;;;;;5096022;28;20435;-73
2022/03/20 13:13:21;;;;;;;28.30;23.50;;;;;;;;;;5096052;28;20819;-73
2022/03/20 13:15:48;;;;;;;33.07;24.97;;;;;;;;;;5095433;28;20432;-74
2022/03/20 13:18:16;;;;;;;32.27;23.80;;;;;;;;;;5095216;28;20522;-73
2022/03/20 13:20:45;;;;;;;32.97;23.80;;;;;;;;;;5095022;28;20453;-73
2022/03/20 13:23:13;;;;;;;32.97;24.50;;;;;;;;;;5095926;28;20455;-74
2022/03/20 13:25:41;;;;;;;33.27;25.60;;;;;;;;;;5094944;28;20945;-73
2022/03/20 13:28:08;;;;;;;30.40;24.03;;;;;;;;;;5095061;28;20524;-73
2022/03/20 13:30:37;;;;;;;35.00;24.07;;;;;;;;;;5095309;28;20471;-73
2022/03/20 13:33:05;;;;;;;31.43;25.70;;;;;;;;;;5095323;28;20522;-73
2022/03/20 13:35:32;;;;;;;33.77;25.20;;;;;;;;;;5095061;28;20470;-73
2022/03/20 13:38:02;;;;;;;34.20;24.67;;;;;;;;;;5094922;28;20443;-74
2022/03/20 13:40:32;;;;;;;31.33;23.80;;;;;;;;;;5095172;28;20467;-74
2022/03/20 13:43:00;;;;;;;33.60;24.20;;;;;;;;;;5094794;28;20961;-73
2022/03/20 13:45:35;;;;;;;35.37;26.20;;;;;;;;;;5094667;28;20459;-73
2022/03/20 13:48:03;;;;;;;33.47;24.83;;;;;;;;;;5094829;28;20951;-74
2022/03/20 13:50:31;;;;;;;33.97;25.67;;;;;;;;;;5094632;28;20518;-74
2022/03/20 13:52:58;;;;;;;34.33;26.43;;;;;;;;;;5094721;28;20523;-74
2022/03/20 13:55:34;;;;;;;34.70;24.87;;;;;;;;;;5094856;28;20495;-74
2022/03/20 13:58:05;;;;;;;32.43;24.00;;;;;;;;;;5094430;28;20510;-74
2022/03/20 14:00:33;;;;;;;35.40;25.07;;;;;;;;;;5094736;28;20435;-75
2022/03/20 14:03:02;;;;;;;33.00;25.03;;;;;;;;;;5094320;28;20475;-75
2022/03/20 14:05:29;;;;;;;34.13;24.80;;;;;;;;;;5094631;28;20529;-74
2022/03/20 14:08:08;;;;;;;37.37;24.33;;;;;;;;;;5094492;28;20437;-75
2022/03/20 14:10:45;;;;;;;30.60;23.87;;;;;;;;;;5094455;28;20440;-75
2022/03/20 14:13:18;;;;;;;31.17;24.73;;;;;;;;;;5094470;28;20420;-75
2022/03/20 14:15:53;;;;;;;31.80;24.27;;;;;;;;;;5094816;28;20486;-75
2022/03/20 14:18:21;;;;;;;33.40;24.83;;;;;;;;;;5094616;28;20485;-75
2022/03/20 14:20:48;;;;;;;33.17;25.10;;;;;;;;;;5094463;28;20450;-74
2022/03/20 14:23:18;;;;;;;44.23;26.90;;;;;;;;;;5094107;28;20865;-74
2022/03/20 14:25:45;;;;;;;28.23;22.57;;;;;;;;;;5093739;28;20447;-75
2022/03/20 14:28:14;;;;;;;34.30;24.90;;;;;;;;;;5093965;28;20436;-74
2022/03/20 14:41:51;;;;;;;31.30;23.77;;;;;;;;;;5093539;28;20445;-74
2022/03/20 14:44:19;;;;;;;32.40;25.63;;;;;;;;;;5093915;28;20432;-74
2022/03/20 14:46:50;;;;;;;37.43;24.97;;;;;;;;;;5094002;28;20440;-74
2022/03/20 14:49:17;;;;;;;32.37;25.20;;;;;;;;;;5093668;28;20451;-74
2022/03/20 14:51:45;;;;;;;35.43;25.40;;;;;;;;;;5093411;28;20470;-72
2022/03/20 14:54:13;;;;;;;34.97;26.43;;;;;;;;;;5093690;28;20486;-74
2022/03/20 14:56:40;;;;;;;35.73;24.90;;;;;;;;;;5090957;28;20432;-73
2022/03/20 14:59:09;;;;;;;33.83;24.73;;;;;;;;;;5093178;28;20481;-73
2022/03/20 15:01:41;;;;;;;33.30;25.60;;;;;;;;;;5092996;28;20432;-73
2022/03/20 15:04:12;;;;;;;32.80;23.77;;;;;;;;;;5092967;28;20474;-74
2022/03/20 15:06:39;;;;;;;32.83;24.13;;;;;;;;;;5093702;28;20436;-73
2022/03/20 15:11:53;;;;;;;34.37;22.83;;;;;;;;;;5092607;28;20408;-73